Time;durP1;ratioP1;P1;durP2;ratioP2;P2;SDS_P1;SDS_P2;PMS_P1;PMS_P2;Temp;Humidity;BMP_temperature;BMP_pressure;BME280_temperature;BME280_humidity;BME280_pressure;Samples;Min_cycle;Max_cycle;Signal;HPM_P1;HPM_P2
2022/03/14 00:01:28;;;;;;;20.25;7.45;;;;;;;;;;5016325;28;20160;-71
2022/03/14 00:03:55;;;;;;;18.63;5.65;;;;;;;;;;5014357;28;20571;-70
2022/03/14 00:06:20;;;;;;;12.45;4.45;;;;;;;;;;5025161;28;20045;-70
2022/03/14 00:08:46;;;;;;;7.93;3.97;;;;;;;;;;5014294;28;20116;-70
2022/03/14 00:11:15;;;;;;;10.85;4.68;;;;;;;;;;5016202;28;20264;-69
2022/03/14 00:13:46;;;;;;;10.52;5.10;;;;;;;;;;5024939;28;20060;-70
2022/03/14 00:16:13;;;;;;;10.05;5.10;;;;;;;;;;5016514;28;20036;-70
2022/03/14 00:18:42;;;;;;;8.82;4.78;;;;;;;;;;5016345;28;20029;-70
2022/03/14 00:21:07;;;;;;;9.10;4.13;;;;;;;;;;5016174;28;20032;-70
2022/03/14 00:23:33;;;;;;;7.60;4.32;;;;;;;;;;5016060;28;20626;-70
2022/03/14 00:25:59;;;;;;;6.85;4.47;;;;;;;;;;5015664;28;20120;-70
2022/03/14 00:28:24;;;;;;;6.07;4.03;;;;;;;;;;5025450;28;20033;-70
2022/03/14 00:30:49;;;;;;;11.27;4.82;;;;;;;;;;5008665;28;20504;-70
2022/03/14 00:33:14;;;;;;;7.70;4.00;;;;;;;;;;5015587;28;20184;-69
2022/03/14 00:35:40;;;;;;;14.60;5.40;;;;;;;;;;5020329;28;20029;-69
2022/03/14 00:38:05;;;;;;;13.38;5.75;;;;;;;;;;5019271;28;20090;-69
2022/03/14 00:40:31;;;;;;;12.48;4.75;;;;;;;;;;5019980;28;20412;-70
2022/03/14 00:42:56;;;;;;;12.60;5.60;;;;;;;;;;5012428;28;20033;-70
2022/03/14 00:45:24;;;;;;;11.45;5.00;;;;;;;;;;5019400;28;20033;-70
2022/03/14 00:47:50;;;;;;;10.73;4.88;;;;;;;;;;5020308;28;20441;-70
2022/03/14 00:50:15;;;;;;;11.60;5.13;;;;;;;;;;5019253;28;20048;-70
2022/03/14 00:52:41;;;;;;;11.82;5.63;;;;;;;;;;5019717;28;20044;-69
2022/03/14 00:55:06;;;;;;;10.65;5.20;;;;;;;;;;5020061;28;20505;-71
2022/03/14 00:57:31;;;;;;;14.70;5.60;;;;;;;;;;5009791;28;20137;-69
2022/03/14 00:59:57;;;;;;;8.85;4.45;;;;;;;;;;5018164;28;20045;-69
2022/03/14 01:02:24;;;;;;;15.80;5.65;;;;;;;;;;4995081;28;20128;-70
2022/03/14 01:04:50;;;;;;;15.82;6.07;;;;;;;;;;4992103;28;20658;-69
2022/03/14 01:07:15;;;;;;;18.20;6.47;;;;;;;;;;5018854;28;20033;-69
2022/03/14 01:09:43;;;;;;;20.50;8.13;;;;;;;;;;5019715;28;20043;-71
2022/03/14 01:12:08;;;;;;;18.95;6.65;;;;;;;;;;5019513;28;20052;-70
2022/03/14 01:14:34;;;;;;;13.15;5.75;;;;;;;;;;5019075;28;20049;-70
2022/03/14 01:16:59;;;;;;;12.15;5.65;;;;;;;;;;5018167;28;20040;-71
2022/03/14 01:19:25;;;;;;;8.52;3.58;;;;;;;;;;5010807;28;20096;-71
2022/03/14 01:21:51;;;;;;;6.78;3.60;;;;;;;;;;5019346;28;20477;-69
2022/03/14 01:24:17;;;;;;;10.98;4.82;;;;;;;;;;5018084;28;21859;-70
2022/03/14 01:26:43;;;;;;;7.35;3.97;;;;;;;;;;5016681;28;20120;-69
2022/03/14 01:29:11;;;;;;;6.72;3.75;;;;;;;;;;5018066;28;20170;-69
2022/03/14 01:31:38;;;;;;;13.93;5.68;;;;;;;;;;5019557;28;20021;-70
2022/03/14 01:34:03;;;;;;;7.32;4.25;;;;;;;;;;5018319;28;20049;-70
2022/03/14 01:36:28;;;;;;;7.72;4.28;;;;;;;;;;5017368;28;20029;-70
2022/03/14 01:38:55;;;;;;;9.77;4.68;;;;;;;;;;5017723;28;20041;-71
2022/03/14 01:41:22;;;;;;;5.53;3.22;;;;;;;;;;5026612;28;20067;-69
2022/03/14 01:43:48;;;;;;;8.52;4.22;;;;;;;;;;5017569;28;20041;-70
2022/03/14 01:46:16;;;;;;;6.82;3.80;;;;;;;;;;5009883;28;20033;-70
2022/03/14 01:48:45;;;;;;;6.38;3.92;;;;;;;;;;5019140;28;20487;-70
2022/03/14 01:51:10;;;;;;;7.57;4.57;;;;;;;;;;5018150;28;20061;-71
2022/03/14 01:53:38;;;;;;;8.13;4.15;;;;;;;;;;5017800;28;20120;-70
2022/03/14 01:56:04;;;;;;;4.35;3.38;;;;;;;;;;5016879;28;20391;-70
2022/03/14 01:58:30;;;;;;;6.35;3.70;;;;;;;;;;4989691;28;20025;-70
2022/03/14 02:00:55;;;;;;;7.80;4.40;;;;;;;;;;5017488;28;20112;-70
2022/03/14 02:03:21;;;;;;;8.65;4.30;;;;;;;;;;5009500;28;20143;-70
2022/03/14 02:05:47;;;;;;;8.55;3.95;;;;;;;;;;5018023;28;20511;-70
2022/03/14 02:08:12;;;;;;;9.25;5.00;;;;;;;;;;5010684;28;20029;-70
2022/03/14 02:10:38;;;;;;;9.75;4.43;;;;;;;;;;5026631;28;20024;-69
2022/03/14 02:13:07;;;;;;;10.00;4.15;;;;;;;;;;5017896;28;20033;-70
2022/03/14 02:15:35;;;;;;;8.20;4.45;;;;;;;;;;5018668;28;20512;-70
2022/03/14 02:18:02;;;;;;;8.95;4.68;;;;;;;;;;5017417;28;20167;-70
2022/03/14 02:20:27;;;;;;;6.50;3.78;;;;;;;;;;5018128;28;20148;-71
2022/03/14 02:22:52;;;;;;;8.32;4.38;;;;;;;;;;5017311;28;20024;-71
2022/03/14 02:25:17;;;;;;;6.95;4.07;;;;;;;;;;5017639;28;20025;-71
2022/03/14 02:27:43;;;;;;;13.15;5.32;;;;;;;;;;5016077;28;20021;-70
2022/03/14 02:30:08;;;;;;;11.02;4.72;;;;;;;;;;5009367;28;20067;-71
2022/03/14 02:32:39;;;;;;;14.60;6.50;;;;;;;;;;5009701;28;20067;-71
2022/03/14 02:35:04;;;;;;;26.88;7.65;;;;;;;;;;5008797;28;20029;-70
2022/03/14 02:37:30;;;;;;;25.52;8.38;;;;;;;;;;5018024;28;20547;-70
2022/03/14 02:39:55;;;;;;;11.10;5.65;;;;;;;;;;5015760;28;20195;-70
2022/03/14 02:42:23;;;;;;;6.47;5.22;;;;;;;;;;4994929;28;20499;-70
2022/03/14 02:44:49;;;;;;;9.02;6.22;;;;;;;;;;5017210;28;20025;-70
2022/03/14 02:47:14;;;;;;;7.53;6.10;;;;;;;;;;5016382;28;20029;-70
2022/03/14 02:49:39;;;;;;;11.73;7.47;;;;;;;;;;5012533;28;20041;-70
2022/03/14 02:52:05;;;;;;;9.13;7.40;;;;;;;;;;5014897;28;20045;-71
2022/03/14 02:54:30;;;;;;;9.23;7.80;;;;;;;;;;5017575;28;20076;-71
2022/03/14 02:56:58;;;;;;;10.90;8.13;;;;;;;;;;5016114;28;20043;-70
2022/03/14 02:59:27;;;;;;;12.57;9.10;;;;;;;;;;5015885;28;20029;-69
2022/03/14 03:01:52;;;;;;;11.93;9.02;;;;;;;;;;5017395;28;20104;-69
2022/03/14 03:04:18;;;;;;;11.50;8.73;;;;;;;;;;5016118;28;20531;-70
2022/03/14 03:06:44;;;;;;;12.40;9.80;;;;;;;;;;5010454;28;20063;-69
2022/03/14 03:09:10;;;;;;;11.85;9.23;;;;;;;;;;5009283;28;20037;-70
2022/03/14 03:11:38;;;;;;;14.77;11.10;;;;;;;;;;5008750;28;20174;-70
2022/03/14 03:14:03;;;;;;;24.85;14.55;;;;;;;;;;5015498;28;20458;-70
2022/03/14 03:16:34;;;;;;;26.17;16.15;;;;;;;;;;5017607;28;20040;-70
2022/03/14 03:19:00;;;;;;;18.55;12.45;;;;;;;;;;5015043;28;20037;-70
2022/03/14 03:21:25;;;;;;;14.57;10.35;;;;;;;;;;5015922;28;20067;-70
2022/03/14 03:23:51;;;;;;;13.70;9.93;;;;;;;;;;5017081;28;20068;-70
2022/03/14 03:26:17;;;;;;;15.63;11.50;;;;;;;;;;5009087;28;20115;-70
2022/03/14 03:28:45;;;;;;;15.23;12.02;;;;;;;;;;5017338;28;20106;-71
2022/03/14 03:31:11;;;;;;;20.98;15.48;;;;;;;;;;5030320;28;20064;-70
2022/03/14 03:33:37;;;;;;;27.92;17.92;;;;;;;;;;5016531;28;20127;-71
2022/03/14 03:36:07;;;;;;;22.83;17.42;;;;;;;;;;5016179;28;20135;-71
2022/03/14 03:38:33;;;;;;;20.17;15.85;;;;;;;;;;5016961;28;20087;-69
2022/03/14 03:40:59;;;;;;;27.92;19.33;;;;;;;;;;5015266;28;20033;-70
2022/03/14 03:43:24;;;;;;;43.88;29.65;;;;;;;;;;5015998;28;20769;-71
2022/03/14 03:45:49;;;;;;;37.08;26.30;;;;;;;;;;5016685;28;20386;-71
2022/03/14 03:48:16;;;;;;;35.47;26.13;;;;;;;;;;5016567;28;20087;-69
2022/03/14 03:50:41;;;;;;;42.78;29.63;;;;;;;;;;5016256;28;20115;-72
2022/03/14 03:53:07;;;;;;;39.28;31.88;;;;;;;;;;4988203;28;20584;-70
2022/03/14 03:55:34;;;;;;;39.55;30.55;;;;;;;;;;5015843;28;20044;-71
2022/03/14 03:58:00;;;;;;;45.85;33.13;;;;;;;;;;5025143;28;20028;-70
2022/03/14 04:00:26;;;;;;;33.92;25.63;;;;;;;;;;5015471;28;20128;-70
2022/03/14 04:02:52;;;;;;;27.23;21.45;;;;;;;;;;5015276;28;20652;-70
2022/03/14 04:05:18;;;;;;;26.98;22.17;;;;;;;;;;5015669;28;20053;-70
2022/03/14 04:07:43;;;;;;;28.65;22.45;;;;;;;;;;4989027;28;20648;-70
2022/03/14 04:10:11;;;;;;;28.88;22.25;;;;;;;;;;5028078;28;20236;-70
2022/03/14 04:12:44;;;;;;;28.48;23.20;;;;;;;;;;5034811;28;20127;-71
2022/03/14 04:15:10;;;;;;;32.10;24.58;;;;;;;;;;5019753;28;20033;-70
2022/03/14 04:17:42;;;;;;;33.47;27.15;;;;;;;;;;5021552;28;20066;-70
2022/03/14 04:20:11;;;;;;;37.60;28.17;;;;;;;;;;5019081;28;20037;-70
2022/03/14 04:22:37;;;;;;;44.75;30.00;;;;;;;;;;5013549;28;20671;-69
2022/03/14 04:25:03;;;;;;;44.00;30.73;;;;;;;;;;5019744;28;20410;-72
2022/03/14 04:27:31;;;;;;;43.80;31.48;;;;;;;;;;5012436;28;20182;-70
2022/03/14 04:29:59;;;;;;;43.03;31.42;;;;;;;;;;5020291;28;20956;-71
2022/03/14 04:32:26;;;;;;;53.08;34.17;;;;;;;;;;5019164;28;20039;-71
2022/03/14 04:34:53;;;;;;;52.42;34.10;;;;;;;;;;5017172;28;20041;-71
2022/03/14 04:37:18;;;;;;;50.63;34.17;;;;;;;;;;5019176;28;20109;-71
2022/03/14 04:39:45;;;;;;;51.67;33.05;;;;;;;;;;5019664;28;20037;-70
2022/03/14 04:42:11;;;;;;;56.58;35.53;;;;;;;;;;5016623;28;20040;-70
2022/03/14 04:44:39;;;;;;;59.50;36.53;;;;;;;;;;5017554;28;20024;-70
2022/03/14 04:47:04;;;;;;;62.30;36.88;;;;;;;;;;5019046;28;20031;-71
2022/03/14 04:49:30;;;;;;;64.45;36.50;;;;;;;;;;5019967;28;20116;-71
2022/03/14 04:51:55;;;;;;;64.28;36.60;;;;;;;;;;5019293;28;20663;-70
2022/03/14 04:54:24;;;;;;;68.07;37.17;;;;;;;;;;5001571;28;20106;-70
2022/03/14 04:56:49;;;;;;;68.75;36.25;;;;;;;;;;5018536;28;20033;-71
2022/03/14 04:59:15;;;;;;;67.25;37.83;;;;;;;;;;5018339;28;20027;-70
2022/03/14 05:01:41;;;;;;;66.82;37.10;;;;;;;;;;5019691;28;20020;-69
2022/03/14 05:04:09;;;;;;;64.78;35.20;;;;;;;;;;5018243;28;20114;-69
2022/03/14 05:06:37;;;;;;;62.25;33.72;;;;;;;;;;5001503;28;20037;-70
2022/03/14 05:09:02;;;;;;;66.45;33.65;;;;;;;;;;5019714;28;20083;-70
2022/03/14 05:11:28;;;;;;;72.60;33.53;;;;;;;;;;5016679;28;20029;-69
2022/03/14 05:13:54;;;;;;;61.08;30.67;;;;;;;;;;5018997;28;20553;-70
2022/03/14 05:16:19;;;;;;;64.80;29.13;;;;;;;;;;5010681;28;20044;-70
2022/03/14 05:18:47;;;;;;;56.53;26.80;;;;;;;;;;5017963;28;20079;-70
2022/03/14 05:21:13;;;;;;;52.70;24.52;;;;;;;;;;5016346;28;20484;-71
2022/03/14 05:23:38;;;;;;;46.85;22.55;;;;;;;;;;5018515;28;20238;-70
2022/03/14 05:26:04;;;;;;;44.15;19.23;;;;;;;;;;5016153;28;20048;-70
2022/03/14 05:28:32;;;;;;;40.38;18.13;;;;;;;;;;5032969;28;20538;-69
2022/03/14 05:30:58;;;;;;;38.08;18.60;;;;;;;;;;5018256;28;20067;-70
2022/03/14 05:33:24;;;;;;;38.53;18.10;;;;;;;;;;5017347;28;20130;-71
2022/03/14 05:35:50;;;;;;;43.45;16.05;;;;;;;;;;5018080;28;20037;-70
2022/03/14 05:38:16;;;;;;;36.08;14.13;;;;;;;;;;5031515;28;20033;-71
2022/03/14 05:40:42;;;;;;;27.45;12.48;;;;;;;;;;5019321;28;20025;-71
2022/03/14 05:43:08;;;;;;;34.85;12.30;;;;;;;;;;5017563;28;20036;-71
2022/03/14 05:45:34;;;;;;;22.83;10.00;;;;;;;;;;5019424;28;20032;-71
2022/03/14 05:48:00;;;;;;;33.30;8.38;;;;;;;;;;5018393;28;20025;-70
2022/03/14 05:50:26;;;;;;;31.58;7.45;;;;;;;;;;5018462;28;20586;-70
2022/03/14 05:52:52;;;;;;;23.85;7.13;;;;;;;;;;5016794;28;20037;-71
2022/03/14 05:55:17;;;;;;;20.88;6.53;;;;;;;;;;5019176;28;20043;-70
2022/03/14 05:57:43;;;;;;;21.98;5.90;;;;;;;;;;5010159;28;20551;-70
2022/03/14 06:00:10;;;;;;;21.27;5.40;;;;;;;;;;5018101;28;20037;-70
2022/03/14 06:02:36;;;;;;;24.83;5.40;;;;;;;;;;4990087;28;20040;-69
2022/03/14 06:05:01;;;;;;;18.67;4.55;;;;;;;;;;5016944;28;20077;-69
2022/03/14 06:07:27;;;;;;;25.15;4.28;;;;;;;;;;5016557;28;20083;-70
2022/03/14 06:09:53;;;;;;;23.23;4.30;;;;;;;;;;5009801;28;20611;-70
2022/03/14 06:12:22;;;;;;;24.00;3.97;;;;;;;;;;5015640;28;20060;-70
2022/03/14 06:14:47;;;;;;;25.55;4.68;;;;;;;;;;5010632;28;20061;-69
2022/03/14 06:17:13;;;;;;;20.50;4.65;;;;;;;;;;5017274;28;20230;-70
2022/03/14 06:19:41;;;;;;;19.85;3.95;;;;;;;;;;5008433;28;20298;-70
2022/03/14 06:22:09;;;;;;;26.17;4.28;;;;;;;;;;5016084;28;20030;-70
2022/03/14 06:24:34;;;;;;;25.48;4.50;;;;;;;;;;4993676;28;20398;-69
2022/03/14 06:26:59;;;;;;;32.08;4.43;;;;;;;;;;5016325;28;20053;-70
2022/03/14 06:29:25;;;;;;;22.63;4.47;;;;;;;;;;5017356;28;20043;-69
2022/03/14 06:31:54;;;;;;;21.15;4.45;;;;;;;;;;5017044;28;20759;-70
2022/03/14 06:34:20;;;;;;;22.77;4.63;;;;;;;;;;5008043;28;20651;-70
2022/03/14 06:36:47;;;;;;;16.58;4.82;;;;;;;;;;5010764;28;20041;-69
2022/03/14 06:39:12;;;;;;;19.45;5.20;;;;;;;;;;5007325;28;20574;-69
2022/03/14 06:41:39;;;;;;;21.63;4.47;;;;;;;;;;5015064;28;20032;-70
2022/03/14 06:44:04;;;;;;;22.70;5.22;;;;;;;;;;5013338;28;20665;-69
2022/03/14 06:46:29;;;;;;;25.45;5.38;;;;;;;;;;5015092;28;20194;-69
2022/03/14 06:48:55;;;;;;;19.80;5.20;;;;;;;;;;5015337;28;20056;-69
2022/03/14 06:51:21;;;;;;;23.60;5.47;;;;;;;;;;5014830;28;20061;-69
2022/03/14 06:53:49;;;;;;;23.40;5.03;;;;;;;;;;5015177;28;20235;-70
2022/03/14 06:56:16;;;;;;;23.30;5.35;;;;;;;;;;4992494;28;20029;-69
2022/03/14 06:58:42;;;;;;;25.85;5.32;;;;;;;;;;5013320;28;20305;-68
2022/03/14 07:01:07;;;;;;;28.63;5.43;;;;;;;;;;5013479;28;20064;-70
2022/03/14 07:03:33;;;;;;;22.20;5.75;;;;;;;;;;5012033;28;20142;-70
2022/03/14 07:05:58;;;;;;;20.75;5.40;;;;;;;;;;5012678;28;20036;-69
2022/03/14 07:08:23;;;;;;;25.58;5.35;;;;;;;;;;5014791;28;20218;-69
2022/03/14 07:10:49;;;;;;;23.45;5.68;;;;;;;;;;5012746;28;20159;-70
2022/03/14 07:13:14;;;;;;;26.40;6.28;;;;;;;;;;5004372;28;20032;-69
2022/03/14 07:15:39;;;;;;;27.42;5.88;;;;;;;;;;5014575;28;20404;-69
2022/03/14 07:18:05;;;;;;;26.90;8.00;;;;;;;;;;5028942;28;20033;-68
2022/03/14 07:20:30;;;;;;;29.33;9.25;;;;;;;;;;5015218;28;20063;-68
2022/03/14 07:22:59;;;;;;;25.98;10.93;;;;;;;;;;5014872;28;20122;-68
2022/03/14 07:25:24;;;;;;;36.65;15.07;;;;;;;;;;5029588;28;22009;-68
2022/03/14 07:27:50;;;;;;;34.03;17.35;;;;;;;;;;5009206;28;20033;-69
2022/03/14 07:30:16;;;;;;;44.40;20.33;;;;;;;;;;5008848;28;20052;-70
2022/03/14 07:32:41;;;;;;;48.15;24.88;;;;;;;;;;5005923;28;20052;-69
2022/03/14 07:35:07;;;;;;;48.67;26.88;;;;;;;;;;5012295;28;20040;-69
2022/03/14 07:37:34;;;;;;;51.63;28.70;;;;;;;;;;5015510;28;20079;-68
2022/03/14 07:40:00;;;;;;;50.33;31.10;;;;;;;;;;5009335;28;20090;-69
2022/03/14 07:42:27;;;;;;;50.38;30.45;;;;;;;;;;5028749;28;20120;-69
2022/03/14 07:44:53;;;;;;;47.10;30.40;;;;;;;;;;5012165;28;20061;-70
2022/03/14 07:47:18;;;;;;;50.00;30.67;;;;;;;;;;5015312;28;20029;-70
2022/03/14 07:49:43;;;;;;;49.67;31.30;;;;;;;;;;5025599;28;20048;-70
2022/03/14 07:52:08;;;;;;;48.03;29.40;;;;;;;;;;5013892;28;20408;-68
2022/03/14 07:54:34;;;;;;;48.22;28.83;;;;;;;;;;5014909;28;20059;-68
2022/03/14 07:57:00;;;;;;;46.95;28.25;;;;;;;;;;5015741;28;20459;-68
2022/03/14 07:59:25;;;;;;;41.20;27.33;;;;;;;;;;5013682;28;20284;-69
2022/03/14 08:01:51;;;;;;;44.65;27.23;;;;;;;;;;5013299;28;20100;-69
2022/03/14 08:04:16;;;;;;;46.72;26.20;;;;;;;;;;5013883;28;20045;-69
2022/03/14 08:06:42;;;;;;;42.50;26.48;;;;;;;;;;5014126;28;20033;-69
2022/03/14 08:09:10;;;;;;;42.22;25.90;;;;;;;;;;5014596;28;20021;-70
2022/03/14 08:11:38;;;;;;;37.72;25.33;;;;;;;;;;5017936;28;20025;-69
2022/03/14 08:14:07;;;;;;;42.25;25.15;;;;;;;;;;5015138;28;20048;-69
2022/03/14 08:16:33;;;;;;;37.30;24.05;;;;;;;;;;5016113;28;20331;-69
2022/03/14 08:18:58;;;;;;;37.75;23.92;;;;;;;;;;5014602;28;20159;-69
2022/03/14 08:21:25;;;;;;;37.72;24.48;;;;;;;;;;5014255;28;20095;-69
2022/03/14 08:23:51;;;;;;;39.50;23.85;;;;;;;;;;4990964;28;20120;-69
2022/03/14 08:26:19;;;;;;;33.53;22.67;;;;;;;;;;5015918;28;20029;-69
2022/03/14 08:28:44;;;;;;;36.42;23.10;;;;;;;;;;5025704;28;20674;-70
2022/03/14 08:31:14;;;;;;;33.55;21.95;;;;;;;;;;5008285;28;20539;-69
2022/03/14 08:33:41;;;;;;;33.72;21.33;;;;;;;;;;5016852;28;20025;-70
2022/03/14 08:36:08;;;;;;;35.88;20.70;;;;;;;;;;5015258;28;21971;-69
2022/03/14 08:38:34;;;;;;;31.42;20.88;;;;;;;;;;5014696;28;20104;-70
2022/03/14 08:40:59;;;;;;;30.67;20.17;;;;;;;;;;5014304;28;20037;-70
2022/03/14 08:43:27;;;;;;;32.15;19.95;;;;;;;;;;5016617;28;20159;-70
2022/03/14 08:45:55;;;;;;;30.80;18.90;;;;;;;;;;5015410;28;20069;-70
2022/03/14 08:48:21;;;;;;;28.42;18.90;;;;;;;;;;5014529;28;20181;-70
2022/03/14 08:50:47;;;;;;;31.50;19.45;;;;;;;;;;5008325;28;20068;-70
2022/03/14 08:53:13;;;;;;;32.78;19.35;;;;;;;;;;5008441;28;20235;-70
2022/03/14 08:55:41;;;;;;;29.95;19.05;;;;;;;;;;5017685;28;20029;-70
2022/03/14 08:58:06;;;;;;;32.20;20.38;;;;;;;;;;5018170;28;20099;-68
2022/03/14 09:00:32;;;;;;;29.30;20.17;;;;;;;;;;5001210;28;20033;-69
2022/03/14 09:02:58;;;;;;;30.60;20.63;;;;;;;;;;5011493;28;20396;-70
2022/03/14 09:05:23;;;;;;;32.67;19.73;;;;;;;;;;5018371;28;20076;-70
2022/03/14 09:07:52;;;;;;;31.45;19.70;;;;;;;;;;5017939;28;20036;-69
2022/03/14 09:10:18;;;;;;;31.48;19.92;;;;;;;;;;5018437;28;20040;-70
2022/03/14 09:12:44;;;;;;;31.38;20.02;;;;;;;;;;5019187;28;20594;-69
2022/03/14 09:15:13;;;;;;;33.72;18.90;;;;;;;;;;5019417;28;20035;-71
2022/03/14 09:17:54;;;;;;;27.60;18.63;;;;;;;;;;5019628;28;20437;-69
2022/03/14 09:20:23;;;;;;;33.42;20.13;;;;;;;;;;5020560;28;20033;-70
2022/03/14 09:22:51;;;;;;;28.15;18.50;;;;;;;;;;5017645;28;20078;-70
2022/03/14 09:25:18;;;;;;;29.17;17.65;;;;;;;;;;5017608;28;20970;-69
2022/03/14 09:27:44;;;;;;;30.83;17.63;;;;;;;;;;5019805;28;20041;-70
2022/03/14 09:30:11;;;;;;;33.03;18.20;;;;;;;;;;5018951;28;20025;-70
2022/03/14 09:32:36;;;;;;;28.92;17.15;;;;;;;;;;4991431;28;21800;-70
2022/03/14 09:35:08;;;;;;;27.95;17.15;;;;;;;;;;5018595;28;20087;-70
2022/03/14 09:37:37;;;;;;;26.70;16.45;;;;;;;;;;5018170;28;20075;-69
2022/03/14 09:40:06;;;;;;;25.80;16.80;;;;;;;;;;5018964;28;20033;-70
2022/03/14 09:42:34;;;;;;;31.42;16.50;;;;;;;;;;5020009;28;20481;-70
2022/03/14 09:45:00;;;;;;;26.88;16.33;;;;;;;;;;5018103;28;20029;-69
2022/03/14 09:47:27;;;;;;;24.77;15.95;;;;;;;;;;5025299;28;20529;-69
2022/03/14 09:49:56;;;;;;;28.90;16.90;;;;;;;;;;5018488;28;20025;-70
2022/03/14 09:52:22;;;;;;;29.50;15.43;;;;;;;;;;5018511;28;20021;-70
2022/03/14 09:54:48;;;;;;;28.13;15.02;;;;;;;;;;5012359;28;20029;-70
2022/03/14 09:57:14;;;;;;;25.00;14.23;;;;;;;;;;5015591;28;20099;-69
2022/03/14 09:59:39;;;;;;;23.10;14.05;;;;;;;;;;5016600;28;20029;-71
2022/03/14 10:02:07;;;;;;;23.75;14.73;;;;;;;;;;5016525;28;20028;-70
2022/03/14 10:04:35;;;;;;;23.17;13.98;;;;;;;;;;5017638;28;20049;-69
2022/03/14 10:07:00;;;;;;;21.60;13.60;;;;;;;;;;5016891;28;20042;-69
2022/03/14 10:09:28;;;;;;;25.35;13.80;;;;;;;;;;5015359;28;20064;-72
2022/03/14 10:11:55;;;;;;;22.80;13.10;;;;;;;;;;5016546;28;20017;-68
2022/03/14 10:14:22;;;;;;;23.45;13.02;;;;;;;;;;5020945;28;20061;-69
2022/03/14 10:16:49;;;;;;;25.67;12.27;;;;;;;;;;5016413;28;20095;-68
2022/03/14 10:19:20;;;;;;;22.27;12.05;;;;;;;;;;5014193;28;20044;-69
2022/03/14 10:21:46;;;;;;;21.23;11.40;;;;;;;;;;5015618;28;20025;-69
2022/03/14 10:24:13;;;;;;;18.35;11.80;;;;;;;;;;5016866;28;20059;-68
2022/03/14 10:26:43;;;;;;;19.38;9.77;;;;;;;;;;5017087;28;20138;-68
2022/03/14 10:29:25;;;;;;;16.73;10.73;;;;;;;;;;5016253;28;20091;-69
2022/03/14 10:31:54;;;;;;;20.75;10.20;;;;;;;;;;5011049;28;20029;-69
2022/03/14 10:34:20;;;;;;;17.92;10.57;;;;;;;;;;5014800;28;20120;-68
2022/03/14 10:36:51;;;;;;;23.75;10.82;;;;;;;;;;5013536;28;20457;-69
2022/03/14 10:39:22;;;;;;;20.52;10.63;;;;;;;;;;5016484;28;20068;-67
2022/03/14 10:42:07;;;;;;;20.40;9.90;;;;;;;;;;5015893;28;20156;-68
2022/03/14 10:44:33;;;;;;;19.42;10.43;;;;;;;;;;5015425;28;20235;-68
2022/03/14 10:47:03;;;;;;;20.60;10.10;;;;;;;;;;5017773;28;20027;-70
2022/03/14 10:49:30;;;;;;;22.33;9.85;;;;;;;;;;5016112;28;20032;-69
2022/03/14 10:52:00;;;;;;;18.08;9.32;;;;;;;;;;5014084;28;20111;-68
2022/03/14 10:54:28;;;;;;;23.08;10.02;;;;;;;;;;5015585;28;20166;-68
2022/03/14 10:57:07;;;;;;;21.98;9.27;;;;;;;;;;5016585;28;20029;-69
2022/03/14 10:59:33;;;;;;;20.10;9.48;;;;;;;;;;4991950;28;20536;-68
2022/03/14 11:01:59;;;;;;;19.55;8.98;;;;;;;;;;5033138;28;20049;-69
2022/03/14 11:04:27;;;;;;;19.13;9.00;;;;;;;;;;5024606;28;20041;-68
2022/03/14 11:06:58;;;;;;;20.05;9.20;;;;;;;;;;5009497;28;20103;-69
2022/03/14 11:09:35;;;;;;;16.38;9.38;;;;;;;;;;5015753;28;20036;-69
2022/03/14 11:12:04;;;;;;;16.88;9.07;;;;;;;;;;5017020;28;20040;-68
2022/03/14 11:14:30;;;;;;;20.65;9.02;;;;;;;;;;5016605;28;20047;-70
2022/03/14 11:17:08;;;;;;;18.48;8.90;;;;;;;;;;5010052;28;20389;-69
2022/03/14 11:19:33;;;;;;;23.42;9.25;;;;;;;;;;5011996;28;20029;-68
2022/03/14 11:21:59;;;;;;;22.63;9.40;;;;;;;;;;5014487;28;20029;-68
2022/03/14 11:24:24;;;;;;;23.23;8.88;;;;;;;;;;5013848;28;20649;-68
2022/03/14 11:26:50;;;;;;;23.42;10.07;;;;;;;;;;5012458;28;20030;-68
2022/03/14 11:29:18;;;;;;;20.55;10.00;;;;;;;;;;5012948;28;20071;-68
2022/03/14 11:31:47;;;;;;;21.98;10.63;;;;;;;;;;5007469;28;20028;-68
2022/03/14 11:34:13;;;;;;;22.08;9.95;;;;;;;;;;5014478;28;20500;-68
2022/03/14 11:36:41;;;;;;;25.73;10.70;;;;;;;;;;5007705;28;20028;-69
2022/03/14 11:39:06;;;;;;;23.80;10.55;;;;;;;;;;5016061;28;20038;-69
2022/03/14 11:41:33;;;;;;;26.50;10.35;;;;;;;;;;5024070;28;20037;-70
2022/03/14 11:43:59;;;;;;;27.13;10.27;;;;;;;;;;5006980;28;20603;-68
2022/03/14 11:46:25;;;;;;;25.60;10.38;;;;;;;;;;5016800;28;20026;-69
2022/03/14 11:48:50;;;;;;;27.77;10.65;;;;;;;;;;5014941;28;20061;-70
2022/03/14 11:51:16;;;;;;;23.00;9.73;;;;;;;;;;5009002;28;20079;-70
2022/03/14 11:53:49;;;;;;;21.40;10.23;;;;;;;;;;5031715;28;20648;-70
2022/03/14 11:56:16;;;;;;;26.63;10.77;;;;;;;;;;5017416;28;20626;-68
2022/03/14 11:58:52;;;;;;;20.20;9.73;;;;;;;;;;5015232;28;20032;-69
2022/03/14 12:01:17;;;;;;;20.98;9.50;;;;;;;;;;5016927;28;20097;-70
2022/03/14 12:04:06;;;;;;;27.45;10.55;;;;;;;;;;5015092;28;20112;-70
2022/03/14 12:06:46;;;;;;;25.45;10.45;;;;;;;;;;5015204;28;20044;-70
2022/03/14 12:09:24;;;;;;;22.15;10.40;;;;;;;;;;5025699;28;20425;-69
2022/03/14 12:12:09;;;;;;;24.42;9.98;;;;;;;;;;5015106;28;20040;-70
2022/03/14 12:14:43;;;;;;;27.83;10.40;;;;;;;;;;5012527;28;20025;-68
2022/03/14 12:17:14;;;;;;;23.05;10.38;;;;;;;;;;5007654;28;20029;-70
2022/03/14 12:19:45;;;;;;;21.08;10.23;;;;;;;;;;5014181;28;20465;-69
2022/03/14 12:22:12;;;;;;;20.85;10.45;;;;;;;;;;5031896;28;20033;-70
2022/03/14 12:24:38;;;;;;;24.70;10.23;;;;;;;;;;5008193;28;20057;-69
2022/03/14 12:27:13;;;;;;;26.15;11.32;;;;;;;;;;5015991;28;20152;-69
2022/03/14 12:29:40;;;;;;;26.58;11.38;;;;;;;;;;5016402;28;20408;-68
2022/03/14 12:32:24;;;;;;;22.15;10.00;;;;;;;;;;5011301;28;20200;-68
2022/03/14 12:34:59;;;;;;;25.48;10.85;;;;;;;;;;5019922;28;20037;-70
2022/03/14 12:37:35;;;;;;;25.83;10.68;;;;;;;;;;5018614;28;20025;-68
2022/03/14 12:40:04;;;;;;;23.35;11.23;;;;;;;;;;4991142;28;20033;-68
2022/03/14 12:42:37;;;;;;;28.83;11.32;;;;;;;;;;5012760;28;20147;-69
2022/03/14 12:45:15;;;;;;;32.72;12.02;;;;;;;;;;5019732;28;20017;-68
2022/03/14 12:47:57;;;;;;;31.00;13.20;;;;;;;;;;4995496;28;20574;-69
2022/03/14 12:50:41;;;;;;;28.52;12.35;;;;;;;;;;4992800;28;20021;-69
2022/03/14 12:53:07;;;;;;;32.78;12.50;;;;;;;;;;5020109;28;20060;-68
2022/03/14 12:55:33;;;;;;;26.23;11.57;;;;;;;;;;5019128;28;20034;-68
2022/03/14 12:58:03;;;;;;;35.70;13.27;;;;;;;;;;5017805;28;20227;-69
2022/03/14 13:00:29;;;;;;;32.80;13.15;;;;;;;;;;5016390;28;20029;-67
2022/03/14 13:02:55;;;;;;;31.13;13.30;;;;;;;;;;5034519;28;20271;-68
2022/03/14 13:05:20;;;;;;;27.63;12.65;;;;;;;;;;5018398;28;20713;-70
2022/03/14 13:07:59;;;;;;;29.73;12.32;;;;;;;;;;4990725;28;20033;-67
2022/03/14 13:10:36;;;;;;;26.70;11.70;;;;;;;;;;5033230;28;20043;-67
2022/03/14 13:13:08;;;;;;;28.60;12.07;;;;;;;;;;5018223;28;20052;-69
2022/03/14 13:15:34;;;;;;;29.63;12.25;;;;;;;;;;5007632;28;20029;-68
2022/03/14 13:18:01;;;;;;;29.58;11.32;;;;;;;;;;4989935;28;20043;-69
2022/03/14 13:20:27;;;;;;;29.50;11.07;;;;;;;;;;5014265;28;20062;-69
2022/03/14 13:22:53;;;;;;;24.98;10.63;;;;;;;;;;5014087;28;20572;-68
2022/03/14 13:25:35;;;;;;;30.38;9.90;;;;;;;;;;5016867;28;20132;-69
2022/03/14 13:28:01;;;;;;;29.88;11.00;;;;;;;;;;5016850;28;20024;-70
2022/03/14 13:30:45;;;;;;;28.75;11.07;;;;;;;;;;5016416;28;20032;-70
2022/03/14 13:33:26;;;;;;;26.75;10.00;;;;;;;;;;5016801;28;20045;-69
2022/03/14 13:35:59;;;;;;;29.15;10.88;;;;;;;;;;5018387;28;20024;-69
2022/03/14 13:38:29;;;;;;;28.67;10.43;;;;;;;;;;5015909;28;20167;-69
2022/03/14 13:40:55;;;;;;;24.65;10.25;;;;;;;;;;5013313;28;20033;-68
2022/03/14 13:43:21;;;;;;;25.77;10.57;;;;;;;;;;5014709;28;20468;-68
2022/03/14 13:45:46;;;;;;;26.38;10.45;;;;;;;;;;5017819;28;20436;-69
2022/03/14 13:48:12;;;;;;;26.17;10.43;;;;;;;;;;5015975;28;20029;-67
2022/03/14 13:50:45;;;;;;;28.85;10.50;;;;;;;;;;5015828;28;20167;-70
2022/03/14 13:53:20;;;;;;;27.02;9.85;;;;;;;;;;5008540;28;20119;-68
2022/03/14 13:55:55;;;;;;;24.15;9.48;;;;;;;;;;5016610;28;20026;-69
2022/03/14 13:58:24;;;;;;;28.13;9.65;;;;;;;;;;5016438;28;20026;-69
2022/03/14 14:00:51;;;;;;;25.13;9.15;;;;;;;;;;5015511;28;20128;-68
2022/03/14 14:03:26;;;;;;;24.65;9.98;;;;;;;;;;5013168;28;20087;-66
2022/03/14 14:05:52;;;;;;;28.02;10.27;;;;;;;;;;5015629;28;20048;-68
2022/03/14 14:08:34;;;;;;;22.83;9.13;;;;;;;;;;5016635;28;20079;-69
2022/03/14 14:10:59;;;;;;;;;;;;;;;;;;5017325;28;20052;-68
2022/03/14 14:13:25;;;;;;;25.63;8.55;;;;;;;;;;5016890;28;20050;-68
2022/03/14 14:15:51;;;;;;;24.67;8.57;;;;;;;;;;5017020;28;20029;-68
2022/03/14 14:18:22;;;;;;;25.75;9.40;;;;;;;;;;5017933;28;20138;-68
2022/03/14 14:20:50;;;;;;;23.83;8.07;;;;;;;;;;5012852;28;20052;-68
2022/03/14 14:23:17;;;;;;;24.95;8.98;;;;;;;;;;5022057;28;20021;-68
2022/03/14 14:25:48;;;;;;;23.10;7.82;;;;;;;;;;5025863;28;20040;-69